Abernathy, Texas
Current Conditions -  °F | °C
As of 4:53 PM on Wednesday 22 Oct 2014 (Local Time) from KLBB Reporting Station
Overcast Overcast  
Wind Chill: 66°   Ceiling: 1500
Heat Index: 66°   Visibility: 8mi
Dew Point: 59°   Wind: 13mph
Humidity: 78%   Direction: 150°SSE
Pressure: 30.08"   Gusts: NA
Location:  33.83°N, 101.84°W
Report Text: KLBB 222153Z 15011KT 8SM BKN015 BKN039 OVC300 19/15 A3008 RMK AO2 SLP152 T01890150
Loading
Personal Weather Stations






























Interactive Weather Map
Tropical Storm Tracking
New forecast layout! Learn more

10-Day Weather Forecast

Advertisements
Track Severe Weather on mobile